Time;durP1;ratioP1;P1;durP2;ratioP2;P2;SDS_P1;SDS_P2;PMS_P1;PMS_P2;Temp;Humidity;BMP_temperature;BMP_pressure;BME280_temperature;BME280_humidity;BME280_pressure;Samples;Min_cycle;Max_cycle;Signal;HPM_P1;HPM_P2
2023/09/11 12:06:05;;;;;;;7.30;2.45;;;;;;;22.17;91.16;100307.88;4940087;29;20052;-96
2023/09/11 12:08:30;;;;;;;5.53;2.13;;;;;;;22.37;89.68;100297.84;4941074;29;20043;-96
2023/09/11 12:10:56;;;;;;;6.20;2.03;;;;;;;22.26;87.76;100308.69;4940914;29;20084;-96
2023/09/11 12:13:24;;;;;;;6.38;2.00;;;;;;;22.17;89.76;100303.44;4942390;29;20036;-96
2023/09/11 12:15:57;;;;;;;6.45;2.15;;;;;;;22.25;90.38;100293.91;4939137;29;20091;-96
2023/09/11 12:18:24;;;;;;;10.38;2.65;;;;;;;22.24;89.72;100293.09;4939951;29;20032;-96
2023/09/11 12:20:52;;;;;;;7.28;2.50;;;;;;;22.49;87.09;100296.50;4938565;29;20014;-96
2023/09/11 12:23:18;;;;;;;7.72;2.00;;;;;;;22.85;86.37;100290.75;4941413;29;20061;-96
2023/09/11 12:25:43;;;;;;;6.32;1.70;;;;;;;23.04;84.70;100294.78;4940852;29;20036;-96
2023/09/11 12:28:12;;;;;;;4.25;2.33;;;;;;;22.85;83.09;100291.59;4939623;29;20024;-96
2023/09/11 12:31:01;;;;;;;5.50;1.63;;;;;;;23.00;83.31;100299.59;4939071;29;20026;-96
2023/09/11 12:33:34;;;;;;;4.57;1.90;;;;;;;22.99;80.87;100297.13;4939452;29;20046;-96
2023/09/11 12:41:50;;;;;;;8.32;2.63;;;;;;;23.99;72.68;100293.63;5594036;23;20043;-96
2023/09/11 12:59:47;;;;;;;9.13;2.80;;;;;;;23.92;74.42;100294.38;5595017;23;20063;-96
2023/09/11 13:02:12;;;;;;;7.00;1.85;;;;;;;23.87;75.31;100286.19;5008643;23;20048;-96
2023/09/11 13:04:41;;;;;;;10.25;1.98;;;;;;;23.87;75.48;100286.19;4951149;29;20051;-96
2023/09/11 13:07:07;;;;;;;6.57;2.30;;;;;;;23.35;75.93;100289.50;4947524;29;20035;-96
2023/09/11 13:09:34;;;;;;;4.97;1.90;;;;;;;23.62;75.34;100290.78;4948608;29;20027;-96
2023/09/11 13:12:00;;;;;;;10.82;2.05;;;;;;;23.67;75.04;100291.06;4945844;29;20032;-96
2023/09/11 13:14:25;;;;;;;8.68;2.22;;;;;;;23.46;74.55;100283.84;4931737;29;20035;-96
2023/09/11 13:16:51;;;;;;;8.50;3.10;;;;;;;23.50;77.00;100284.28;4931481;29;20088;-96
2023/09/11 13:19:17;;;;;;;5.20;2.00;;;;;;;24.22;74.00;100289.13;4927170;29;20372;-95
2023/09/11 13:21:42;;;;;;;6.97;2.08;;;;;;;24.89;69.43;100282.91;4932537;29;20020;-96
2023/09/11 13:24:08;;;;;;;8.57;1.77;;;;;;;25.33;66.68;100284.63;4934653;29;20024;-96
2023/09/11 13:26:34;;;;;;;3.63;1.83;;;;;;;25.49;67.85;100288.88;4932618;29;20102;-96
2023/09/11 13:29:00;;;;;;;5.10;2.30;;;;;;;25.63;64.42;100290.63;4928703;29;20550;-96
2023/09/11 13:31:27;;;;;;;6.40;2.00;;;;;;;25.61;64.27;100279.41;4931079;29;20028;-96
2023/09/11 13:33:54;;;;;;;3.78;1.55;;;;;;;25.61;64.15;100283.91;4930041;29;20064;-96
2023/09/11 13:36:20;;;;;;;4.20;1.90;;;;;;;25.27;63.80;100284.59;4928919;29;20036;-96
2023/09/11 13:38:45;;;;;;;4.07;1.65;;;;;;;24.89;67.73;100280.28;4927739;29;20035;-96
2023/09/11 13:54:06;;;;;;;4.65;1.10;;;;;;;25.82;61.85;100275.09;5882355;23;21204;-96
2023/09/11 13:56:32;;;;;;;5.82;1.50;;;;;;;25.91;61.76;100263.41;4950497;29;20034;-96
2023/09/11 13:58:57;;;;;;;7.50;1.52;;;;;;;25.47;62.29;100269.72;4951006;29;20027;-96
2023/09/11 14:01:23;;;;;;;3.35;1.45;;;;;;;25.39;64.16;100275.97;4943689;29;20032;-96
2023/09/11 14:03:49;;;;;;;4.85;1.52;;;;;;;25.15;63.06;100274.47;5077667;23;20115;-96
2023/09/11 14:06:14;;;;;;;4.45;1.63;;;;;;;24.65;64.03;100278.75;4948073;29;20094;-96
2023/09/11 14:08:56;;;;;;;5.97;1.60;;;;;;;24.91;64.02;100282.75;5129229;23;20060;-96
2023/09/11 14:11:22;;;;;;;2.85;1.23;;;;;;;24.88;63.83;100272.56;4952800;29;20040;-96
2023/09/11 14:13:48;;;;;;;5.65;1.50;;;;;;;24.90;63.72;100266.09;4938841;29;20055;-96
2023/09/11 14:16:13;;;;;;;4.60;1.35;;;;;;;24.96;64.63;100264.53;4938836;29;20093;-96
2023/09/11 14:18:39;;;;;;;5.65;2.33;;;;;;;24.59;65.66;100268.16;4938361;29;20074;-96
2023/09/11 14:21:04;;;;;;;4.80;1.40;;;;;;;24.13;67.93;100269.94;4938088;29;20036;-96
2023/09/11 14:23:30;;;;;;;4.97;1.60;;;;;;;24.21;67.15;100249.75;4938110;29;20016;-96
2023/09/11 14:25:56;;;;;;;3.67;1.42;;;;;;;24.30;68.02;100248.66;4937765;29;20031;-96
2023/09/11 14:28:22;;;;;;;4.50;1.10;;;;;;;24.17;68.41;100251.94;4936975;29;20015;-96
2023/09/11 14:30:47;;;;;;;6.53;2.60;;;;;;;24.20;68.53;100254.22;4937274;29;20047;-96
2023/09/11 14:33:13;;;;;;;9.23;2.45;;;;;;;24.21;66.83;100250.56;4936284;29;20038;-96
2023/09/11 14:35:39;;;;;;;5.30;1.85;;;;;;;24.34;68.21;100253.41;4937829;29;20240;-96
2023/09/11 14:43:11;;;;;;;4.65;1.30;;;;;;;24.14;67.08;100241.72;4930608;29;20099;-96
2023/09/11 14:45:37;;;;;;;3.53;1.20;;;;;;;23.92;69.41;100241.66;4931057;29;20064;-96
2023/09/11 14:50:37;;;;;;;6.00;1.67;;;;;;;23.78;69.36;100239.81;5318582;23;20092;-96
2023/09/11 14:53:03;;;;;;;4.13;1.50;;;;;;;23.74;70.34;100246.44;4943028;29;20119;-96
2023/09/11 14:55:29;;;;;;;5.97;2.08;;;;;;;23.83;70.37;100236.63;4940318;29;20035;-96
2023/09/11 14:57:54;;;;;;;3.78;1.20;;;;;;;24.06;69.27;100239.19;4940439;29;20035;-96
2023/09/11 15:00:20;;;;;;;5.47;1.38;;;;;;;24.21;68.58;100233.91;4941067;29;20032;-96
2023/09/11 15:02:45;;;;;;;10.95;1.58;;;;;;;24.31;68.82;100229.19;4940607;29;20048;-96
2023/09/11 15:05:14;;;;;;;3.13;1.52;;;;;;;24.49;67.06;100231.50;5079742;23;20010;-96
2023/09/11 15:18:00;;;;;;;8.55;1.85;;;;;;;24.05;67.75;100233.13;5867441;23;20123;-96
2023/09/11 15:20:26;;;;;;;8.00;1.85;;;;;;;23.84;69.55;100235.63;4978101;23;20055;-96
2023/09/11 15:22:51;;;;;;;4.00;1.75;;;;;;;23.70;70.75;100229.28;5239129;23;20032;-96
2023/09/11 15:25:17;;;;;;;3.17;1.05;;;;;;;23.80;69.22;100237.81;4939806;29;20028;-96
2023/09/11 15:27:42;;;;;;;3.95;1.60;;;;;;;23.53;69.63;100233.88;4939975;29;20035;-96
2023/09/11 15:30:08;;;;;;;7.20;2.20;;;;;;;23.56;71.47;100235.38;4954085;29;20024;-96
2023/09/11 15:32:34;;;;;;;6.72;1.40;;;;;;;23.23;72.97;100241.69;4937736;29;20028;-96
2023/09/11 15:35:03;;;;;;;6.50;1.52;;;;;;;23.48;71.81;100234.44;4938826;29;20032;-96
2023/09/11 15:37:31;;;;;;;7.45;1.80;;;;;;;23.52;71.52;100226.19;4937969;29;20024;-96
2023/09/11 15:39:56;;;;;;;3.92;1.70;;;;;;;23.59;69.63;100225.28;4937327;29;20051;-96
2023/09/11 15:42:22;;;;;;;9.55;1.88;;;;;;;23.57;71.02;100226.47;4939758;29;20025;-96
2023/09/11 15:44:49;;;;;;;2.53;1.10;;;;;;;23.61;70.19;100230.38;4941616;29;20028;-96
2023/09/11 15:47:15;;;;;;;5.75;2.08;;;;;;;23.36;70.55;100233.22;4938622;29;20027;-96
2023/09/11 15:49:40;;;;;;;5.65;1.58;;;;;;;23.14;70.99;100236.66;4938750;29;20099;-96
2023/09/11 15:52:06;;;;;;;11.00;2.75;;;;;;;23.18;70.85;100235.31;4941826;29;20087;-96
2023/09/11 15:54:35;;;;;;;6.57;1.50;;;;;;;23.13;71.50;100237.66;4942161;29;20028;-96
2023/09/11 15:57:00;;;;;;;4.18;1.50;;;;;;;22.99;70.79;100231.31;4940009;29;20016;-96
2023/09/11 15:59:26;;;;;;;3.03;1.13;;;;;;;23.19;71.77;100235.16;4941037;29;20028;-96
2023/09/11 16:01:52;;;;;;;4.20;1.27;;;;;;;23.27;71.57;100234.28;4940826;29;20103;-96
2023/09/11 16:04:18;;;;;;;4.38;2.05;;;;;;;23.17;70.42;100238.97;4940693;29;20092;-96
2023/09/11 16:06:44;;;;;;;3.55;1.48;;;;;;;23.10;70.74;100241.47;4939824;29;20020;-96
2023/09/11 16:09:09;;;;;;;4.50;1.77;;;;;;;22.87;72.83;100238.75;4940284;29;20020;-96
2023/09/11 16:11:35;;;;;;;6.50;1.58;;;;;;;22.81;73.08;100242.91;4939220;29;20028;-96
2023/09/11 16:14:00;;;;;;;4.32;1.30;;;;;;;22.67;73.88;100234.94;4939772;29;20059;-96
2023/09/11 16:16:26;;;;;;;7.15;1.45;;;;;;;22.68;73.97;100240.03;4940400;29;20042;-96
2023/09/11 16:47:19;;;;;;;2.83;1.27;;;;;;;22.23;76.98;100254.63;5210313;23;20047;-96
2023/09/11 16:49:44;;;;;;;5.53;1.40;;;;;;;22.16;77.67;100249.19;4961791;29;20062;-96
2023/09/11 16:52:10;;;;;;;3.50;1.30;;;;;;;22.29;77.00;100250.50;4950720;28;20036;-96
2023/09/11 16:54:36;;;;;;;2.95;1.55;;;;;;;22.20;78.76;100250.53;4942020;29;20024;-96
2023/09/11 16:57:01;;;;;;;6.65;1.80;;;;;;;22.14;77.58;100247.72;4941680;29;20047;-96
2023/09/11 19:29:27;;;;;;;1.75;0.35;;;;;;;19.58;100.00;100307.28;5219318;23;20239;-96
2023/09/11 20:33:58;;;;;;;2.95;0.60;;;;;;;19.20;100.00;100313.59;5140512;23;20051;-96
2023/09/11 20:36:23;;;;;;;3.15;0.63;;;;;;;19.13;100.00;100318.59;4959796;29;20059;-96
2023/09/11 20:38:50;;;;;;;2.05;0.40;;;;;;;18.99;100.00;100325.13;4959179;29;20031;-96
